LiveATC.Net - Listen to live air traffic control over the Internet!


ICAO: KAVQ  IATA: AVQ   Airport: Marana Regional Airport
City: Marana   State/Province: Arizona
Country: United States   Continent: North America
KAVQ METAR Weather: KAVQ 240215Z AUTO 19004KT 10SM OVC110 24/20 A3007 RMK AO2 T02430196
KAVQ Flight Activity (FlightAware)
KAVQ Airport Info   (iFlightPlanner)
KAVQ VFR Sectional Chart   (iFlightPlanner) 
KAVQ IFR Low Chart   (iFlightPlanner) 

KAVQ CTAF
Feed Status: UP   Listeners: 0
Listen in your browser - HTML5 player (in browser, HTML5)
Click here to listen with your own player (launches your MP3 player)
Archive Access: KAVQ CTAF
FacilityFrequency
Marana CTAF123.000
DesertPilot.com

NOTICE

Unauthorized use prohibited. See LiveATC.net Terms of Service


Airport/ARTCC Code
Frequency Search
(e.g., 124.400, 128.75)
Site-wide search
 


Browse Feeds
Top 50 Feeds
HF Oceanic Feeds
Coverage Map
Bad Weather Areas

LiveATC FAQ
Offer LiveATC feed
Contact LiveATC.net
Press Inquiries

LiveATC on iPhone
LiveATC on Android

Windows Phone
Windows 8/10

LiveATC Mobile
(Mobile browser)

ATC Audio Archives
Interesting Recordings

LiveATC Forums


Home Page
About LiveATC.net
Make a Donation
Terms of Use
Privacy Policy

Canadian Air Freqs

AIRMETs/SIGMETs

FAA Airport Status
NAS Status
Arrival Demand


Server Software By:
Icecast.org
Liquidsoap